Berit — ZDHX2 — position and weather

sailwx.info

Track history (hours):
 
Tides and Currents Weather Stations Pressure Air Temp Water Temp Dewpoint Dewpoint Depression Visibility Wind Speed Wind Dir Waves Ship Positions

Berit

Last reported at 2014-Aug-19 14:27 UTC. Time now 2014-Aug-22 09:50 UTC.
Position N 49°27' E 000°34'.

Length 83 m; draft 3.4 m.

Type: Cargo ship. MMSI: 236386000.

Date/timePositionNaut miles runAvg speedWind from/ knotsBaromVisibWave heightAir tempDewpointWater temp
2014-Aug-19 14:27N 49°27' E 000°34'8 9.4
2014-Aug-19 13:33N 49°26' E 000°21'1010.4
2014-Aug-19 12:34N 49°26' E 000°05'8 7.7
2014-Aug-19 11:33N 49°28' W 000°06'0 0.1
2014-Aug-19 10:33N 49°28' W 000°06'0 0.0
2014-Aug-19 09:33N 49°28' W 000°06'0 0.0
2014-Aug-19 08:33N 49°28' W 000°06'0 0.0
2014-Aug-19 07:30N 49°28' W 000°06'2 1.7
2014-Aug-19 06:33N 49°28' W 000°09'8 8.4
2014-Aug-19 05:33N 49°36' W 000°11'58 8.2
2014-Aug-18 22:32N 50°31' E 000°17'1110.8
2014-Aug-18 21:32N 50°34' E 000°34'1010.5
2014-Aug-18 20:33N 50°39' E 000°47'30 9.2
2014-Aug-18 17:21N 50°58' E 001°23'7 8.5
2014-Aug-18 16:33N 51°03' E 001°31'8 7.5
2014-Aug-18 15:33N 51°05' E 001°42'15 9.9
2014-Aug-18 14:03N 51°03' E 002°06'510.8
2014-Aug-18 13:33N 51°04' E 002°14'4 4.1
2014-Aug-18 12:31N 51°03' E 002°21'2 2.3
2014-Aug-18 11:31N 51°03' E 002°17'0 0.0
2014-Aug-18 10:31N 51°03' E 002°17'0 0.0
2014-Aug-18 09:28N 51°03' E 002°17'0 0.0
2014-Aug-18 08:31N 51°03' E 002°17'0 0.0
2014-Aug-18 07:25N 51°03' E 002°17'0 0.0
2014-Aug-18 06:19N 51°03' E 002°17'0 0.0
2014-Aug-18 05:31N 51°03' E 002°17'0 0.0
2014-Aug-18 03:25N 51°03' E 002°17'0 0.0
2014-Aug-18 02:31N 51°03' E 002°17'0 0.0
2014-Aug-18 01:22N 51°03' E 002°17'0 0.0
2014-Aug-18 00:28N 51°03' E 002°17'0 0.0
2014-Aug-17 18:31N 51°03' E 002°17'0 0.0
2014-Aug-17 17:31N 51°03' E 002°17'0 0.0
2014-Aug-17 16:31N 51°03' E 002°17'0 0.0
2014-Aug-17 15:31N 51°03' E 002°17'0 0.0
2014-Aug-17 14:31N 51°03' E 002°17'0 0.0
2014-Aug-17 13:31N 51°03' E 002°17'0 0.0
2014-Aug-17 12:31N 51°03' E 002°17'0 0.0
2014-Aug-17 11:31N 51°03' E 002°17'0 0.0
2014-Aug-17 10:22N 51°03' E 002°17'0 0.0
2014-Aug-17 09:31N 51°03' E 002°17'0 0.0
2014-Aug-17 08:32N 51°03' E 002°17'0 0.0
2014-Aug-17 07:32N 51°03' E 002°17'0 0.0
2014-Aug-17 06:32N 51°03' E 002°17'0 0.0
2014-Aug-17 05:32N 51°03' E 002°17'0 0.0
2014-Aug-17 04:32N 51°03' E 002°17'0 0.0
2014-Aug-17 03:32N 51°03' E 002°17'0 0.0
2014-Aug-17 02:32N 51°03' E 002°17'0 0.0
2014-Aug-17 01:32N 51°03' E 002°17'0 0.0
2014-Aug-17 00:32N 51°03' E 002°17'0 0.0
2014-Aug-16 23:26N 51°03' E 002°17'0 0.0
2014-Aug-16 22:29N 51°03' E 002°17'0 0.0
2014-Aug-16 21:29N 51°03' E 002°17'0 0.0
2014-Aug-16 20:32N 51°03' E 002°17'0 0.0
2014-Aug-16 19:32N 51°03' E 002°17'0 0.0
2014-Aug-16 18:32N 51°03' E 002°17'0 0.0
2014-Aug-16 17:32N 51°03' E 002°17'0 0.0
2014-Aug-16 16:32N 51°03' E 002°17'0 0.0
2014-Aug-16 15:32N 51°03' E 002°17'0 0.0
2014-Aug-16 14:26N 51°03' E 002°17'0 0.0
2014-Aug-16 13:32N 51°03' E 002°17'0 0.0
2014-Aug-16 12:32N 51°03' E 002°17'0 0.0
2014-Aug-16 11:32N 51°03' E 002°17'0 0.0
2014-Aug-16 10:29N 51°03' E 002°17'0 0.0
2014-Aug-16 09:32N 51°03' E 002°17'0 0.0
2014-Aug-16 08:32N 51°03' E 002°17'1 1.2
2014-Aug-16 07:33N 51°03' E 002°19'1 1.3
2014-Aug-16 06:30N 51°04' E 002°21'6 6.7
2014-Aug-16 05:33N 51°03' E 002°11'15 7.4
2014-Aug-16 03:33N 51°03' E 001°47'7 6.8
2014-Aug-16 02:33N 51°09' E 001°41'7 7.4
2014-Aug-16 01:34N 51°15' E 001°46'7 6.9
2014-Aug-16 00:33N 51°22' E 001°51'8 7.9
2014-Aug-15 23:34N 51°29' E 001°56'8 7.5
2014-Aug-15 22:32N 51°36' E 001°59'30 7.5
2014-Aug-15 18:34N 52°05' E 002°14'  
2014-Aug-10 15:10N 58°57' E 005°00'6 9.3
2014-Aug-10 14:34N 58°52' E 005°05'10 9.7
2014-Aug-10 13:33N 58°44' E 005°15'14 9.9
2014-Aug-10 12:06N 58°31' E 005°28'5 9.7
2014-Aug-10 11:33N 58°27' E 005°35'9 9.2
2014-Aug-10 10:33N 58°20' E 005°47'9 8.8
2014-Aug-10 09:34N 58°14' E 005°59'8 8.3
2014-Aug-10 08:34N 58°09' E 006°11'8 7.8
2014-Aug-10 07:33N 58°04' E 006°22'  
Track history (hours):
 
Tides and Currents Weather Stations Pressure Air Temp Water Temp Dewpoint Dewpoint Depression Visibility Wind Speed Wind Dir Waves Ship Positions

Berit

Last reported at 2014-Aug-19 14:27 UTC. Time now 2014-Aug-22 09:50 UTC.
Position N 49°27' E 000°34'.

Length 83 m; draft 3.4 m.

Type: Cargo ship. MMSI: 236386000.

Date/timePositionNaut miles runAvg speedWind from/ knotsBaromVisibWave heightAir tempDewpointWater temp
2014-Aug-19 14:27N 49°27' E 000°34'8 9.4
2014-Aug-19 13:33N 49°26' E 000°21'1010.4
2014-Aug-19 12:34N 49°26' E 000°05'8 7.7
2014-Aug-19 11:33N 49°28' W 000°06'0 0.1
2014-Aug-19 10:33N 49°28' W 000°06'0 0.0
2014-Aug-19 09:33N 49°28' W 000°06'0 0.0
2014-Aug-19 08:33N 49°28' W 000°06'0 0.0
2014-Aug-19 07:30N 49°28' W 000°06'2 1.7
2014-Aug-19 06:33N 49°28' W 000°09'8 8.4
2014-Aug-19 05:33N 49°36' W 000°11'58 8.2
2014-Aug-18 22:32N 50°31' E 000°17'1110.8
2014-Aug-18 21:32N 50°34' E 000°34'1010.5
2014-Aug-18 20:33N 50°39' E 000°47'30 9.2
2014-Aug-18 17:21N 50°58' E 001°23'7 8.5
2014-Aug-18 16:33N 51°03' E 001°31'8 7.5
2014-Aug-18 15:33N 51°05' E 001°42'15 9.9
2014-Aug-18 14:03N 51°03' E 002°06'510.8
2014-Aug-18 13:33N 51°04' E 002°14'4 4.1
2014-Aug-18 12:31N 51°03' E 002°21'2 2.3
2014-Aug-18 11:31N 51°03' E 002°17'0 0.0
2014-Aug-18 10:31N 51°03' E 002°17'0 0.0
2014-Aug-18 09:28N 51°03' E 002°17'0 0.0
2014-Aug-18 08:31N 51°03' E 002°17'0 0.0
2014-Aug-18 07:25N 51°03' E 002°17'0 0.0
2014-Aug-18 06:19N 51°03' E 002°17'0 0.0
2014-Aug-18 05:31N 51°03' E 002°17'0 0.0
2014-Aug-18 03:25N 51°03' E 002°17'0 0.0
2014-Aug-18 02:31N 51°03' E 002°17'0 0.0
2014-Aug-18 01:22N 51°03' E 002°17'0 0.0
2014-Aug-18 00:28N 51°03' E 002°17'0 0.0
2014-Aug-17 18:31N 51°03' E 002°17'0 0.0
2014-Aug-17 17:31N 51°03' E 002°17'0 0.0
2014-Aug-17 16:31N 51°03' E 002°17'0 0.0
2014-Aug-17 15:31N 51°03' E 002°17'0 0.0
2014-Aug-17 14:31N 51°03' E 002°17'0 0.0
2014-Aug-17 13:31N 51°03' E 002°17'0 0.0
2014-Aug-17 12:31N 51°03' E 002°17'0 0.0
2014-Aug-17 11:31N 51°03' E 002°17'0 0.0
2014-Aug-17 10:22N 51°03' E 002°17'0 0.0
2014-Aug-17 09:31N 51°03' E 002°17'0 0.0
2014-Aug-17 08:32N 51°03' E 002°17'0 0.0
2014-Aug-17 07:32N 51°03' E 002°17'0 0.0
2014-Aug-17 06:32N 51°03' E 002°17'0 0.0
2014-Aug-17 05:32N 51°03' E 002°17'0 0.0
2014-Aug-17 04:32N 51°03' E 002°17'0 0.0
2014-Aug-17 03:32N 51°03' E 002°17'0 0.0
2014-Aug-17 02:32N 51°03' E 002°17'0 0.0
2014-Aug-17 01:32N 51°03' E 002°17'0 0.0
2014-Aug-17 00:32N 51°03' E 002°17'0 0.0
2014-Aug-16 23:26N 51°03' E 002°17'0 0.0
2014-Aug-16 22:29N 51°03' E 002°17'0 0.0
2014-Aug-16 21:29N 51°03' E 002°17'0 0.0
2014-Aug-16 20:32N 51°03' E 002°17'0 0.0
2014-Aug-16 19:32N 51°03' E 002°17'0 0.0
2014-Aug-16 18:32N 51°03' E 002°17'0 0.0
2014-Aug-16 17:32N 51°03' E 002°17'0 0.0
2014-Aug-16 16:32N 51°03' E 002°17'0 0.0
2014-Aug-16 15:32N 51°03' E 002°17'0 0.0
2014-Aug-16 14:26N 51°03' E 002°17'0 0.0
2014-Aug-16 13:32N 51°03' E 002°17'0 0.0
2014-Aug-16 12:32N 51°03' E 002°17'0 0.0
2014-Aug-16 11:32N 51°03' E 002°17'0 0.0
2014-Aug-16 10:29N 51°03' E 002°17'0 0.0
2014-Aug-16 09:32N 51°03' E 002°17'0 0.0
2014-Aug-16 08:32N 51°03' E 002°17'1 1.2
2014-Aug-16 07:33N 51°03' E 002°19'1 1.3
2014-Aug-16 06:30N 51°04' E 002°21'6 6.7
2014-Aug-16 05:33N 51°03' E 002°11'15 7.4
2014-Aug-16 03:33N 51°03' E 001°47'7 6.8
2014-Aug-16 02:33N 51°09' E 001°41'7 7.4
2014-Aug-16 01:34N 51°15' E 001°46'7 6.9
2014-Aug-16 00:33N 51°22' E 001°51'8 7.9
2014-Aug-15 23:34N 51°29' E 001°56'8 7.5
2014-Aug-15 22:32N 51°36' E 001°59'30 7.5
2014-Aug-15 18:34N 52°05' E 002°14'  
2014-Aug-10 15:10N 58°57' E 005°00'6 9.3
2014-Aug-10 14:34N 58°52' E 005°05'10 9.7
2014-Aug-10 13:33N 58°44' E 005°15'14 9.9
2014-Aug-10 12:06N 58°31' E 005°28'5 9.7
2014-Aug-10 11:33N 58°27' E 005°35'9 9.2
2014-Aug-10 10:33N 58°20' E 005°47'9 8.8
2014-Aug-10 09:34N 58°14' E 005°59'8 8.3
2014-Aug-10 08:34N 58°09' E 006°11'8 7.8
2014-Aug-10 07:33N 58°04' E 006°22'  

Dump ship's entire track history